createdAt,value
2022-11-10T00:01:21.787Z,9.76
2022-11-10T00:03:50.530Z,9.65
2022-11-10T00:06:20.804Z,9.42
2022-11-10T00:08:49.301Z,9.70
2022-11-10T00:11:17.972Z,9.68
2022-11-10T00:14:07.575Z,9.53
2022-11-10T00:16:53.208Z,9.79
2022-11-10T00:19:21.735Z,9.40
2022-11-10T00:21:51.437Z,9.61
2022-11-10T00:24:19.918Z,9.55
2022-11-10T00:26:49.038Z,9.35
2022-11-10T00:29:17.442Z,9.51
2022-11-10T00:31:45.946Z,8.89
2022-11-10T00:34:16.124Z,9.41
2022-11-10T00:36:45.807Z,9.21
2022-11-10T00:39:16.087Z,9.31
2022-11-10T00:41:44.615Z,9.27
2022-11-10T00:44:13.051Z,9.28
2022-11-10T00:46:41.435Z,9.31
2022-11-10T00:49:10.474Z,9.34
2022-11-10T00:51:38.979Z,9.05
2022-11-10T00:54:09.182Z,9.25
2022-11-10T00:56:39.039Z,9.10
2022-11-10T00:59:07.676Z,8.94
2022-11-10T01:01:36.290Z,9.12
2022-11-10T01:04:04.956Z,9.05
2022-11-10T01:06:33.949Z,9.03
2022-11-10T01:09:02.474Z,8.99
2022-11-10T01:11:31.192Z,8.88
2022-11-10T01:14:01.689Z,8.71
2022-11-10T01:16:33.965Z,8.74
2022-11-10T01:19:04.607Z,8.74
2022-11-10T01:21:33.041Z,8.78
2022-11-10T01:24:01.686Z,8.75
2022-11-10T01:26:30.112Z,8.71
2022-11-10T01:29:00.970Z,8.44
2022-11-10T01:31:29.382Z,8.47
2022-11-10T01:34:00.053Z,8.62
2022-11-10T01:36:28.690Z,8.53
2022-11-10T01:38:57.347Z,8.51
2022-11-10T01:41:25.767Z,7.89
2022-11-10T01:43:54.150Z,8.48
2022-11-10T01:46:23.941Z,8.44
2022-11-10T01:48:56.908Z,8.41
2022-11-10T01:51:29.606Z,8.41
2022-11-10T01:54:00.853Z,8.51
2022-11-10T01:56:32.073Z,8.43
2022-11-10T01:59:03.345Z,8.48
2022-11-10T02:01:33.167Z,8.51
2022-11-10T02:04:05.443Z,8.49
2022-11-10T02:06:39.494Z,8.45
2022-11-10T02:09:08.289Z,8.38
2022-11-10T02:11:39.136Z,8.42
2022-11-10T02:14:07.914Z,8.41
2022-11-10T02:16:38.195Z,8.39
2022-11-10T02:19:18.332Z,8.42
2022-11-10T02:21:48.259Z,8.21
2022-11-10T02:24:17.042Z,8.28
2022-11-10T02:26:50.067Z,8.36
2022-11-10T02:29:18.579Z,8.32
2022-11-10T02:31:47.171Z,8.31
2022-11-10T02:34:15.646Z,8.29
2022-11-10T02:36:44.058Z,8.30
2022-11-10T02:39:13.858Z,8.54
2022-11-10T02:41:42.193Z,8.30
2022-11-10T02:44:10.647Z,8.19
2022-11-10T02:46:39.049Z,8.29
2022-11-10T02:49:08.254Z,8.23
2022-11-10T02:51:36.706Z,8.19
2022-11-10T02:54:06.312Z,7.78
2022-11-10T02:56:36.636Z,8.24
2022-11-10T02:59:05.241Z,8.22
2022-11-10T03:01:33.632Z,8.23
2022-11-10T03:04:02.088Z,8.31
2022-11-10T03:06:30.567Z,8.31
2022-11-10T03:08:59.359Z,8.36
2022-11-10T03:11:31.974Z,8.34
2022-11-10T03:14:02.899Z,8.35
2022-11-10T03:16:31.571Z,8.27
2022-11-10T03:19:00.248Z,8.32
2022-11-10T03:21:28.642Z,8.33
2022-11-10T03:23:57.026Z,8.29
2022-11-10T03:26:25.466Z,7.65
2022-11-10T03:28:53.886Z,8.25
2022-11-10T03:31:23.708Z,8.23
2022-11-10T03:33:52.037Z,8.23
2022-11-10T03:36:20.502Z,8.21
2022-11-10T03:38:48.856Z,8.20
2022-11-10T03:41:20.136Z,8.18
2022-11-10T03:43:49.101Z,8.12
2022-11-10T03:46:17.931Z,7.95
2022-11-10T03:48:53.292Z,7.96
2022-11-10T03:51:23.048Z,7.85
2022-11-10T03:53:51.634Z,7.96
2022-11-10T03:56:20.373Z,7.91
2022-11-10T03:58:48.770Z,7.88
2022-11-10T04:01:17.328Z,7.88
2022-11-10T04:03:51.289Z,7.55
2022-11-10T04:06:37.855Z,7.55
2022-11-10T04:09:07.275Z,7.78
2022-11-10T04:11:53.362Z,7.76
2022-11-10T04:14:38.952Z,7.72
2022-11-10T04:17:07.346Z,7.55
2022-11-10T04:19:37.186Z,7.69
2022-11-10T04:22:05.930Z,7.68
2022-11-10T04:24:35.086Z,7.48
2022-11-10T04:27:03.414Z,7.16
2022-11-10T04:29:31.842Z,7.73
2022-11-10T04:32:00.159Z,7.43
2022-11-10T04:34:28.532Z,7.78
2022-11-10T04:36:58.281Z,7.83
2022-11-10T04:39:26.673Z,7.83
2022-11-10T04:42:01.333Z,7.88
2022-11-10T04:44:30.933Z,7.91
2022-11-10T04:46:59.320Z,7.92
2022-11-10T04:49:27.967Z,7.99
2022-11-10T04:51:58.647Z,7.84
2022-11-10T04:54:27.174Z,8.06
2022-11-10T04:56:55.533Z,6.72
2022-11-10T04:59:23.991Z,8.10
2022-11-10T05:01:52.391Z,8.11
2022-11-10T05:04:20.992Z,7.99
2022-11-10T05:06:49.744Z,8.09
2022-11-10T05:09:19.702Z,8.12
2022-11-10T05:11:48.402Z,8.12
2022-11-10T05:14:17.091Z,8.25
2022-11-10T05:16:45.407Z,8.29
2022-11-10T05:19:13.995Z,8.08
2022-11-10T05:21:42.366Z,8.34
2022-11-10T05:24:11.444Z,8.37
2022-11-10T05:26:41.250Z,8.43
2022-11-10T05:29:09.655Z,8.45
2022-11-10T05:31:38.096Z,8.44
2022-11-10T05:34:06.562Z,8.45
2022-11-10T05:36:34.957Z,8.55
2022-11-10T05:39:03.307Z,8.49
2022-11-10T05:41:32.019Z,8.30
2022-11-10T05:44:01.815Z,8.33
2022-11-10T05:46:31.705Z,8.53
2022-11-10T05:48:59.991Z,8.57
2022-11-10T05:51:28.358Z,8.46
2022-11-10T05:53:56.782Z,8.74
2022-11-10T05:56:25.441Z,8.68
2022-11-10T05:58:53.741Z,8.65
2022-11-10T06:01:23.543Z,8.60
2022-11-10T06:03:52.202Z,8.59
2022-11-10T06:06:20.868Z,8.59
2022-11-10T06:08:49.420Z,8.53
2022-11-10T06:11:17.765Z,8.56
2022-11-10T06:13:46.186Z,8.45
2022-11-10T06:16:14.621Z,8.33
2022-11-10T06:18:44.412Z,8.47
2022-11-10T06:21:13.008Z,8.14
2022-11-10T06:23:41.417Z,8.20
2022-11-10T06:26:09.823Z,8.33
2022-11-10T06:28:38.178Z,7.93
2022-11-10T06:31:06.852Z,8.25
2022-11-10T06:33:35.667Z,8.34
2022-11-10T06:36:05.655Z,8.21
2022-11-10T06:38:34.022Z,8.48
2022-11-10T06:41:02.394Z,8.01
2022-11-10T06:43:30.741Z,8.13
2022-11-10T06:45:59.607Z,8.06
2022-11-10T06:48:27.994Z,8.30
2022-11-10T06:50:56.377Z,8.05
2022-11-10T06:53:27.269Z,8.09
2022-11-10T06:55:56.130Z,7.77
2022-11-10T06:58:25.326Z,8.02
2022-11-10T07:00:53.729Z,8.10
2022-11-10T07:03:22.502Z,7.93
2022-11-10T07:05:51.124Z,8.12
2022-11-10T07:08:19.643Z,7.77
2022-11-10T07:10:54.585Z,7.97
2022-11-10T07:13:23.911Z,8.21
2022-11-10T07:15:53.275Z,8.18
2022-11-10T07:18:21.559Z,8.33
2022-11-10T07:20:49.948Z,8.33
2022-11-10T07:23:18.978Z,8.57
2022-11-10T07:25:49.126Z,8.55
2022-11-10T07:28:17.475Z,8.45
2022-11-10T07:30:46.913Z,8.68
2022-11-10T07:33:16.419Z,8.68
2022-11-10T07:35:45.795Z,8.45
2022-11-10T07:38:15.723Z,8.61
2022-11-10T07:40:44.203Z,8.33
2022-11-10T07:43:13.952Z,8.64
2022-11-10T07:45:42.919Z,8.66
2022-11-10T07:48:11.383Z,8.78
2022-11-10T07:50:40.205Z,8.67
2022-11-10T07:53:11.193Z,8.64
2022-11-10T07:55:41.022Z,8.60
2022-11-10T07:58:10.470Z,8.49
2022-11-10T08:00:40.498Z,8.67
2022-11-10T08:03:12.276Z,8.59
2022-11-10T08:05:41.737Z,8.19
2022-11-10T08:08:11.086Z,8.55
2022-11-10T08:10:41.344Z,8.55
2022-11-10T08:13:11.729Z,8.52
2022-11-10T08:15:42.763Z,8.50
2022-11-10T08:18:17.873Z,8.32
2022-11-10T08:20:46.650Z,8.55
2022-11-10T08:23:15.969Z,8.42
2022-11-10T08:25:44.994Z,8.44
2022-11-10T08:28:15.947Z,8.52
2022-11-10T08:30:48.071Z,8.36
2022-11-10T08:33:19.516Z,8.52
2022-11-10T08:35:49.963Z,8.44
2022-11-10T08:38:20.563Z,8.59
2022-11-10T08:40:50.141Z,8.48
2022-11-10T08:43:20.047Z,8.63
2022-11-10T08:45:50.768Z,8.66
2022-11-10T08:48:21.561Z,8.76
2022-11-10T08:50:50.721Z,8.80
2022-11-10T08:53:21.548Z,8.77
2022-11-10T08:55:51.383Z,8.78
2022-11-10T08:58:21.948Z,8.80
2022-11-10T09:00:52.596Z,8.77
2022-11-10T09:03:23.382Z,8.93
2022-11-10T09:05:58.042Z,8.77
2022-11-10T09:08:27.444Z,8.88
2022-11-10T09:10:55.838Z,9.10
2022-11-10T09:13:29.384Z,9.02
2022-11-10T09:16:02.322Z,9.04
2022-11-10T09:18:31.048Z,9.21
2022-11-10T09:20:59.504Z,9.29
2022-11-10T09:23:28.301Z,8.72
2022-11-10T09:25:57.873Z,9.15
2022-11-10T09:28:26.880Z,9.39
2022-11-10T09:30:55.310Z,9.53
2022-11-10T09:33:25.424Z,9.58
2022-11-10T09:35:58.961Z,9.41
2022-11-10T09:38:27.518Z,9.38
2022-11-10T09:41:03.081Z,9.16
2022-11-10T09:43:39.063Z,9.70
2022-11-10T09:46:15.020Z,9.76
2022-11-10T09:48:50.604Z,9.72
2022-11-10T09:51:23.698Z,9.57
2022-11-10T09:53:57.165Z,9.62
2022-11-10T09:56:32.375Z,9.71
2022-11-10T09:59:02.076Z,9.47
2022-11-10T10:01:37.847Z,9.82
2022-11-10T10:04:22.728Z,9.82
2022-11-10T10:07:10.818Z,9.42
2022-11-10T10:09:48.840Z,10.17
2022-11-10T10:12:27.426Z,9.65
2022-11-10T10:15:13.721Z,10.10
2022-11-10T10:17:52.710Z,9.37
2022-11-10T10:20:29.595Z,10.11
2022-11-10T10:23:10.480Z,10.26
2022-11-10T10:25:40.881Z,10.33
2022-11-10T10:28:21.430Z,10.47
2022-11-10T10:30:50.878Z,10.24
2022-11-10T10:33:20.883Z,10.21
2022-11-10T10:35:51.825Z,10.53
2022-11-10T10:38:25.563Z,10.30
2022-11-10T10:40:58.782Z,10.55
2022-11-10T10:43:27.294Z,10.37
2022-11-10T10:46:15.976Z,10.39
2022-11-10T10:48:47.736Z,10.40
2022-11-10T10:51:32.317Z,10.35
2022-11-10T10:54:00.707Z,10.30
2022-11-10T10:56:34.355Z,10.33
2022-11-10T10:59:06.291Z,10.57
2022-11-10T11:01:36.069Z,10.42
2022-11-10T11:04:26.767Z,10.37
2022-11-10T11:07:00.545Z,9.88
2022-11-10T11:09:31.338Z,10.38
2022-11-10T11:12:06.748Z,10.27
2022-11-10T11:14:35.390Z,10.49
2022-11-10T11:17:13.358Z,10.49
2022-11-10T11:19:42.465Z,10.52
2022-11-10T11:22:48.134Z,10.47
2022-11-10T11:25:25.486Z,10.53
2022-11-10T11:28:03.889Z,10.56
2022-11-10T11:30:45.650Z,9.91
2022-11-10T11:33:34.137Z,10.59
2022-11-10T11:36:13.052Z,10.56
2022-11-10T11:38:53.759Z,10.26
2022-11-10T11:41:34.505Z,10.46
2022-11-10T11:44:17.697Z,10.29
2022-11-10T11:46:54.475Z,10.53
2022-11-10T11:49:43.259Z,10.43
2022-11-10T11:52:23.442Z,10.12
2022-11-10T11:55:15.324Z,10.28
2022-11-10T11:57:55.398Z,10.46
2022-11-10T12:00:24.862Z,10.43
2022-11-10T12:03:26.629Z,10.42
2022-11-10T12:06:08.555Z,10.45
2022-11-10T12:08:47.173Z,10.49
2022-11-10T12:11:22.929Z,10.50
2022-11-10T12:14:01.996Z,10.43
2022-11-10T12:16:31.912Z,10.49
2022-11-10T12:19:14.764Z,10.38
2022-11-10T12:21:50.501Z,10.26
2022-11-10T12:24:38.122Z,10.25
2022-11-10T12:27:15.206Z,10.29
2022-11-10T12:29:49.023Z,10.28
2022-11-10T12:32:23.690Z,10.07
2022-11-10T12:34:56.944Z,10.16
2022-11-10T12:37:34.833Z,10.14
2022-11-10T12:40:07.554Z,10.04
2022-11-10T12:42:39.262Z,10.19
2022-11-10T12:45:17.886Z,10.19
2022-11-10T12:47:49.491Z,10.25
2022-11-10T12:50:30.605Z,10.27
2022-11-10T12:53:03.285Z,10.36
2022-11-10T12:55:37.840Z,10.05
2022-11-10T12:58:08.841Z,10.02
2022-11-10T13:00:43.523Z,10.18
2022-11-10T13:03:17.086Z,10.15
2022-11-10T13:05:46.609Z,10.02
2022-11-10T13:08:27.507Z,10.35
2022-11-10T13:10:58.812Z,10.16
2022-11-10T13:13:29.431Z,10.28
2022-11-10T13:15:59.034Z,10.45
2022-11-10T13:18:54.612Z,10.39
2022-11-10T13:21:56.057Z,10.31
2022-11-10T13:24:26.460Z,10.34
2022-11-10T13:26:56.241Z,10.33
2022-11-10T13:29:36.441Z,10.27
2022-11-10T13:32:28.866Z,10.27
2022-11-10T13:35:51.168Z,10.27
2022-11-10T13:38:37.309Z,10.28
2022-11-10T13:41:24.892Z,10.25
2022-11-10T13:43:54.934Z,10.35
2022-11-10T13:46:35.243Z,10.23
2022-11-10T13:49:32.546Z,10.43
2022-11-10T13:52:12.375Z,10.28
2022-11-10T13:55:16.401Z,10.38
2022-11-10T13:58:01.318Z,10.24
2022-11-10T14:00:32.540Z,9.70
2022-11-10T14:03:03.368Z,10.11
2022-11-10T14:06:04.742Z,10.16
2022-11-10T14:08:42.094Z,10.17
2022-11-10T14:11:22.518Z,10.17
2022-11-10T14:13:56.977Z,10.17
2022-11-10T14:16:27.861Z,10.17
2022-11-10T14:19:03.314Z,10.12
2022-11-10T14:21:39.824Z,9.93
2022-11-10T14:24:20.477Z,9.98
2022-11-10T14:26:53.274Z,9.90
2022-11-10T14:29:33.564Z,9.97
2022-11-10T14:32:04.654Z,9.92
2022-11-10T14:34:44.589Z,9.89
2022-11-10T14:37:19.114Z,9.81
2022-11-10T14:39:48.901Z,9.78
2022-11-10T14:42:23.692Z,9.68
2022-11-10T14:45:06.714Z,9.60
2022-11-10T14:47:36.030Z,9.62
2022-11-10T14:50:18.382Z,9.56
2022-11-10T14:52:49.838Z,9.59
2022-11-10T14:55:22.171Z,9.50
2022-11-10T14:58:00.481Z,9.48
2022-11-10T15:00:29.477Z,8.63
2022-11-10T15:02:59.699Z,9.49
2022-11-10T15:05:32.510Z,9.41
2022-11-10T15:08:02.949Z,9.30
2022-11-10T15:10:45.224Z,9.24
2022-11-10T15:13:37.761Z,9.29
2022-11-10T15:16:25.651Z,9.18
2022-11-10T15:18:55.855Z,9.12
2022-11-10T15:21:34.165Z,9.10
2022-11-10T15:24:08.300Z,9.07
2022-11-10T15:26:40.859Z,9.08
2022-11-10T15:29:20.404Z,9.19
2022-11-10T15:31:49.134Z,8.90
2022-11-10T15:34:42.824Z,9.09
2022-11-10T15:37:26.039Z,9.07
2022-11-10T15:40:31.495Z,8.94
2022-11-10T15:43:16.530Z,8.86
2022-11-10T15:45:48.493Z,9.00
2022-11-10T15:48:19.875Z,8.84
2022-11-10T15:50:51.046Z,8.82
2022-11-10T15:53:26.040Z,8.77
2022-11-10T15:55:54.622Z,8.85
2022-11-10T15:58:25.383Z,8.74
2022-11-10T16:00:53.880Z,9.00
2022-11-10T16:03:24.883Z,8.73
2022-11-10T16:05:53.254Z,8.63
2022-11-10T16:08:24.570Z,8.59
2022-11-10T16:10:55.726Z,7.34
2022-11-10T16:13:27.847Z,8.58
2022-11-10T16:15:57.533Z,8.61
2022-11-10T16:18:28.935Z,8.24
2022-11-10T16:20:57.466Z,8.52
2022-11-10T16:23:27.258Z,8.54
2022-11-10T16:25:57.816Z,8.50
2022-11-10T16:28:28.875Z,8.48
2022-11-10T16:30:57.343Z,8.32
2022-11-10T16:33:28.056Z,8.47
2022-11-10T16:35:57.983Z,8.26
2022-11-10T16:38:30.561Z,8.48
2022-11-10T16:41:00.699Z,8.65
2022-11-10T16:43:30.568Z,8.64
2022-11-10T16:46:03.673Z,8.43
2022-11-10T16:48:34.651Z,8.24
2022-11-10T16:51:03.897Z,8.58
2022-11-10T16:53:33.778Z,8.52
2022-11-10T16:56:02.098Z,8.46
2022-11-10T16:58:30.374Z,8.51
2022-11-10T17:01:01.383Z,8.58
2022-11-10T17:03:33.345Z,8.49
2022-11-10T17:06:01.891Z,8.42
2022-11-10T17:08:33.142Z,8.39
2022-11-10T17:11:03.013Z,8.38
2022-11-10T17:13:31.294Z,8.33
2022-11-10T17:16:07.237Z,8.19
2022-11-10T17:18:37.505Z,8.10
2022-11-10T17:21:08.983Z,7.71
2022-11-10T17:23:39.333Z,8.07
2022-11-10T17:26:10.553Z,8.20
2022-11-10T17:28:39.378Z,8.18
2022-11-10T17:31:07.726Z,8.13
2022-11-10T17:33:36.119Z,7.69
2022-11-10T17:36:05.630Z,7.97
2022-11-10T17:38:34.855Z,7.89
2022-11-10T17:41:04.670Z,8.00
2022-11-10T17:43:34.577Z,7.99
2022-11-10T17:46:03.270Z,7.99
2022-11-10T17:48:31.594Z,7.97
2022-11-10T17:51:01.025Z,7.96
2022-11-10T17:53:29.742Z,7.71
2022-11-10T17:55:58.414Z,7.97
2022-11-10T17:58:27.602Z,8.00
2022-11-10T18:00:58.322Z,7.97
2022-11-10T18:03:26.987Z,8.02
2022-11-10T18:05:55.906Z,8.04
2022-11-10T18:08:24.851Z,7.91
2022-11-10T18:10:54.425Z,8.07
2022-11-10T18:13:23.437Z,8.07
2022-11-10T18:15:54.521Z,8.06
2022-11-10T18:18:24.533Z,8.07
2022-11-10T18:20:53.481Z,8.07
2022-11-10T18:23:22.309Z,8.06
2022-11-10T18:25:51.398Z,8.06
2022-11-10T18:28:20.081Z,7.80
2022-11-10T18:30:48.539Z,8.06
2022-11-10T18:33:17.003Z,8.05
2022-11-10T18:35:47.787Z,8.06
2022-11-10T18:38:16.473Z,7.46
2022-11-10T18:40:44.988Z,7.34
2022-11-10T18:43:13.539Z,7.46
2022-11-10T18:45:42.094Z,7.07
2022-11-10T18:48:10.516Z,8.03
2022-11-10T18:50:39.559Z,7.45
2022-11-10T18:53:09.394Z,8.02
2022-11-10T18:55:40.552Z,8.03
2022-11-10T18:58:12.894Z,8.04
2022-11-10T19:00:41.494Z,7.41
2022-11-10T19:03:09.961Z,8.05
2022-11-10T19:05:39.726Z,7.83
2022-11-10T19:08:11.003Z,8.11
2022-11-10T19:10:44.407Z,8.04
2022-11-10T19:13:13.985Z,8.10
2022-11-10T19:15:42.451Z,8.09
2022-11-10T19:18:11.037Z,8.09
2022-11-10T19:20:42.252Z,8.05
2022-11-10T19:23:13.438Z,8.02
2022-11-10T19:25:42.747Z,7.92
2022-11-10T19:28:12.585Z,7.97
2022-11-10T19:30:41.576Z,7.92
2022-11-10T19:33:10.611Z,8.00
2022-11-10T19:35:42.630Z,8.05
2022-11-10T19:38:13.202Z,8.10
2022-11-10T19:40:43.122Z,8.03
2022-11-10T19:43:12.073Z,8.04
2022-11-10T19:45:41.507Z,8.00
2022-11-10T19:48:10.207Z,7.96
2022-11-10T19:50:39.067Z,8.02
2022-11-10T19:53:08.073Z,7.88
2022-11-10T19:55:38.086Z,8.02
2022-11-10T19:58:06.643Z,8.15
2022-11-10T20:00:35.138Z,7.99
2022-11-10T20:03:05.097Z,8.06
2022-11-10T20:05:36.212Z,7.83
2022-11-10T20:08:13.173Z,7.90
2022-11-10T20:10:45.165Z,7.71
2022-11-10T20:13:14.642Z,7.85
2022-11-10T20:15:45.358Z,7.75
2022-11-10T20:18:14.597Z,7.77
2022-11-10T20:20:44.895Z,7.55
2022-11-10T20:23:16.227Z,7.60
2022-11-10T20:25:46.749Z,7.49
2022-11-10T20:28:15.452Z,7.50
2022-11-10T20:30:46.123Z,7.56
2022-11-10T20:33:14.535Z,7.64
2022-11-10T20:35:44.111Z,7.64
2022-11-10T20:38:13.604Z,7.64
2022-11-10T20:40:44.871Z,7.64
2022-11-10T20:43:15.391Z,7.56
2022-11-10T20:45:44.210Z,7.57
2022-11-10T20:48:12.643Z,7.54
2022-11-10T20:50:42.338Z,7.61
2022-11-10T20:53:10.689Z,7.49
2022-11-10T20:55:55.158Z,7.27
2022-11-10T20:58:25.022Z,6.93
2022-11-10T21:00:53.808Z,7.30
2022-11-10T21:03:23.205Z,7.42
2022-11-10T21:05:55.808Z,7.43
2022-11-10T21:08:24.425Z,7.30
2022-11-10T21:10:53.298Z,7.39
2022-11-10T21:13:21.848Z,7.37
2022-11-10T21:15:54.162Z,7.38
2022-11-10T21:18:22.975Z,7.39
2022-11-10T21:20:51.580Z,7.34
2022-11-10T21:23:20.120Z,7.27
2022-11-10T21:25:54.232Z,7.39
2022-11-10T21:28:23.051Z,7.40
2022-11-10T21:30:54.091Z,7.43
2022-11-10T21:33:23.096Z,7.42
2022-11-10T21:35:51.565Z,7.43
2022-11-10T21:38:19.975Z,7.19
2022-11-10T21:40:48.303Z,7.25
2022-11-10T21:43:16.691Z,7.06
2022-11-10T21:45:45.164Z,7.43
2022-11-10T21:48:15.375Z,7.43
2022-11-10T21:50:44.116Z,7.57
2022-11-10T21:53:12.538Z,7.59
2022-11-10T21:55:41.566Z,7.50
2022-11-10T21:58:09.970Z,7.47
2022-11-10T22:00:38.375Z,7.44
2022-11-10T22:03:07.027Z,7.17
2022-11-10T22:05:36.842Z,7.46
2022-11-10T22:08:05.943Z,7.48
2022-11-10T22:10:51.474Z,7.36
2022-11-10T22:13:37.871Z,7.57
2022-11-10T22:16:39.637Z,7.10
2022-11-10T22:19:09.850Z,7.46
2022-11-10T22:21:40.004Z,7.33
2022-11-10T22:24:27.917Z,7.48
2022-11-10T22:26:57.389Z,7.44
2022-11-10T22:29:31.419Z,7.29
2022-11-10T22:32:01.491Z,7.32
2022-11-10T22:34:30.227Z,7.44
2022-11-10T22:37:00.555Z,7.41
2022-11-10T22:39:48.874Z,7.40
2022-11-10T22:42:34.362Z,7.13
2022-11-10T22:45:02.816Z,7.23
2022-11-10T22:47:51.232Z,7.47
2022-11-10T22:50:19.945Z,7.11
2022-11-10T22:52:49.696Z,7.48
2022-11-10T22:55:18.379Z,7.50
2022-11-10T22:57:46.780Z,7.62
2022-11-10T23:00:16.899Z,7.62
2022-11-10T23:02:45.543Z,7.63
2022-11-10T23:05:13.912Z,7.54
2022-11-10T23:07:42.373Z,7.72
2022-11-10T23:10:13.041Z,7.71
2022-11-10T23:12:41.710Z,7.70
2022-11-10T23:15:10.882Z,7.77
2022-11-10T23:17:39.778Z,7.56
2022-11-10T23:20:09.134Z,7.58
2022-11-10T23:22:37.485Z,7.75
2022-11-10T23:25:07.306Z,7.90
2022-11-10T23:27:37.954Z,7.76
2022-11-10T23:30:07.476Z,7.76
2022-11-10T23:32:36.169Z,7.63
2022-11-10T23:35:05.171Z,7.73
2022-11-10T23:37:34.049Z,7.52
2022-11-10T23:40:02.758Z,7.66
2022-11-10T23:42:33.129Z,7.72
2022-11-10T23:45:03.079Z,7.69
2022-11-10T23:47:32.052Z,7.33
2022-11-10T23:50:00.345Z,7.63
2022-11-10T23:52:28.836Z,7.58
2022-11-10T23:54:57.214Z,7.56
2022-11-10T23:57:25.588Z,7.56
2022-11-10T23:59:53.857Z,6.98
